createdAt,value
2023-04-21T00:00:09.030Z,10.40
2023-04-21T00:02:42.407Z,10.37
2023-04-21T00:05:11.095Z,10.33
2023-04-21T00:07:39.582Z,10.30
2023-04-21T00:10:08.217Z,10.29
2023-04-21T00:12:35.435Z,10.28
2023-04-21T00:15:03.017Z,10.26
2023-04-21T00:17:30.084Z,10.20
2023-04-21T00:19:58.679Z,10.21
2023-04-21T00:22:25.810Z,10.18
2023-04-21T00:24:52.905Z,10.18
2023-04-21T00:27:19.917Z,10.18
2023-04-21T00:29:48.942Z,10.15
2023-04-21T00:32:16.468Z,10.14
2023-04-21T00:34:43.621Z,10.12
2023-04-21T00:37:12.364Z,10.10
2023-04-21T00:39:39.941Z,10.09
2023-04-21T00:42:07.046Z,10.06
2023-04-21T00:44:35.762Z,10.02
2023-04-21T00:47:03.996Z,9.99
2023-04-21T00:49:31.240Z,9.98
2023-04-21T00:51:58.758Z,9.93
2023-04-21T00:54:28.586Z,9.90
2023-04-21T00:56:58.584Z,9.89
2023-04-21T00:59:28.296Z,9.90
2023-04-21T01:01:57.256Z,9.87
2023-04-21T01:04:24.390Z,9.86
2023-04-21T01:06:52.262Z,9.85
2023-04-21T01:09:19.774Z,9.79
2023-04-21T01:12:06.168Z,9.72
2023-04-21T01:14:35.774Z,9.69
2023-04-21T01:17:08.079Z,9.69
2023-04-21T01:19:42.059Z,9.66
2023-04-21T01:22:13.217Z,9.64
2023-04-21T01:24:47.600Z,9.61
2023-04-21T01:27:19.920Z,9.56
2023-04-21T01:29:51.916Z,9.55
2023-04-21T01:32:21.797Z,9.53
2023-04-21T01:34:50.311Z,9.52
2023-04-21T01:37:20.793Z,9.49
2023-04-21T01:39:54.577Z,9.47
2023-04-21T01:42:24.645Z,9.43
2023-04-21T01:44:54.107Z,9.42
2023-04-21T01:47:21.927Z,9.41
2023-04-21T01:49:48.984Z,9.37
2023-04-21T01:52:16.433Z,9.35
2023-04-21T01:54:43.543Z,9.32
2023-04-21T01:57:11.258Z,9.28
2023-04-21T01:59:38.616Z,9.28
2023-04-21T02:02:05.860Z,9.28
2023-04-21T02:04:34.363Z,9.22
2023-04-21T02:07:01.972Z,9.18
2023-04-21T02:09:29.066Z,9.21
2023-04-21T02:11:57.337Z,9.18
2023-04-21T02:14:27.546Z,9.17
2023-04-21T02:16:56.430Z,9.14
2023-04-21T02:19:24.378Z,9.13
2023-04-21T02:21:51.424Z,9.10
2023-04-21T02:24:22.410Z,9.14
2023-04-21T02:26:49.476Z,9.07
2023-04-21T02:29:16.940Z,9.05
2023-04-21T02:31:57.910Z,9.03
2023-04-21T02:34:30.525Z,8.96
2023-04-21T02:36:57.880Z,8.97
2023-04-21T02:39:26.595Z,8.95
2023-04-21T02:41:53.569Z,8.96
2023-04-21T02:44:21.348Z,8.96
2023-04-21T02:46:48.464Z,8.96
2023-04-21T02:49:15.523Z,8.92
2023-04-21T02:51:42.615Z,8.96
2023-04-21T02:54:09.691Z,8.96
2023-04-21T02:56:36.798Z,8.91
2023-04-21T02:59:03.888Z,8.94
2023-04-21T03:01:30.917Z,8.91
2023-04-21T03:03:58.107Z,8.94
2023-04-21T03:06:25.454Z,8.91
2023-04-21T03:08:52.478Z,8.79
2023-04-21T03:11:19.510Z,8.77
2023-04-21T03:13:46.478Z,8.73
2023-04-21T03:16:13.750Z,8.70
2023-04-21T03:18:44.248Z,8.68
2023-04-21T03:21:12.315Z,8.61
2023-04-21T03:23:39.490Z,8.66
2023-04-21T03:26:10.069Z,8.68
2023-04-21T03:28:37.147Z,8.69
2023-04-21T03:31:04.192Z,8.69
2023-04-21T03:33:31.367Z,8.62
2023-04-21T03:35:58.532Z,8.62
2023-04-21T03:38:25.559Z,8.55
2023-04-21T03:40:52.669Z,8.53
2023-04-21T03:43:19.720Z,8.52
2023-04-21T03:45:46.867Z,8.50
2023-04-21T03:48:13.954Z,8.51
2023-04-21T03:50:41.201Z,8.49
2023-04-21T03:53:08.229Z,8.45
2023-04-21T03:55:35.527Z,8.46
2023-04-21T03:58:02.979Z,8.43
2023-04-21T04:00:30.093Z,8.38
2023-04-21T04:02:57.302Z,8.40
2023-04-21T04:05:24.704Z,8.38
2023-04-21T04:07:51.784Z,8.39
2023-04-21T04:10:18.972Z,8.40
2023-04-21T04:12:46.035Z,8.41
2023-04-21T04:15:13.166Z,8.42
2023-04-21T04:17:40.256Z,8.39
2023-04-21T04:20:08.651Z,8.37
2023-04-21T04:22:35.972Z,8.37
2023-04-21T04:25:04.064Z,8.44
2023-04-21T04:27:31.186Z,8.41
2023-04-21T04:29:58.230Z,8.46
2023-04-21T04:32:28.591Z,8.50
2023-04-21T04:34:56.097Z,8.51
2023-04-21T04:37:23.160Z,8.58
2023-04-21T04:39:53.753Z,8.62
2023-04-21T04:42:20.829Z,8.66
2023-04-21T04:44:48.254Z,8.67
2023-04-21T04:47:15.464Z,8.75
2023-04-21T04:49:42.543Z,8.79
2023-04-21T04:52:09.741Z,8.86
2023-04-21T04:54:36.803Z,8.85
2023-04-21T04:57:03.900Z,8.96
2023-04-21T04:59:31.447Z,9.00
2023-04-21T05:01:58.610Z,9.07
2023-04-21T05:04:26.306Z,9.09
2023-04-21T05:06:53.946Z,9.16
2023-04-21T05:09:21.089Z,9.23
2023-04-21T05:11:48.200Z,9.31
2023-04-21T05:14:15.360Z,9.33
2023-04-21T05:16:44.079Z,9.42
2023-04-21T05:19:11.403Z,9.44
2023-04-21T05:21:38.560Z,9.50
2023-04-21T05:24:05.841Z,9.58
2023-04-21T05:26:32.978Z,9.65
2023-04-21T05:29:00.047Z,9.74
2023-04-21T05:31:27.310Z,9.81
2023-04-21T05:33:54.517Z,9.94
2023-04-21T05:36:21.608Z,10.02
2023-04-21T05:38:48.625Z,10.08
2023-04-21T05:41:16.226Z,10.12
2023-04-21T05:43:43.461Z,10.09
2023-04-21T05:46:14.065Z,10.17
2023-04-21T05:48:41.766Z,10.19
2023-04-21T05:51:14.107Z,10.25
2023-04-21T05:53:41.571Z,10.34
2023-04-21T05:56:12.095Z,10.42
2023-04-21T05:58:39.262Z,10.42
2023-04-21T06:01:09.305Z,10.48
2023-04-21T06:03:36.769Z,10.59
2023-04-21T06:06:06.027Z,10.71
2023-04-21T06:08:33.428Z,10.79
2023-04-21T06:11:00.594Z,10.95
2023-04-21T06:13:27.923Z,11.07
2023-04-21T06:15:55.691Z,11.22
2023-04-21T06:18:24.180Z,11.32
2023-04-21T06:20:52.217Z,11.45
2023-04-21T06:23:19.559Z,11.57
2023-04-21T06:25:46.806Z,11.70
2023-04-21T06:28:14.021Z,11.81
2023-04-21T06:30:41.163Z,11.94
2023-04-21T06:33:08.282Z,12.12
2023-04-21T06:35:35.757Z,12.27
2023-04-21T06:38:02.835Z,12.44
2023-04-21T06:40:31.279Z,12.62
2023-04-21T06:42:58.326Z,12.78
2023-04-21T06:45:25.652Z,12.85
2023-04-21T06:47:52.777Z,12.83
2023-04-21T06:50:19.926Z,12.95
2023-04-21T06:52:46.964Z,12.99
2023-04-21T06:55:14.210Z,13.09
2023-04-21T06:57:41.434Z,13.15
2023-04-21T07:00:09.954Z,13.28
2023-04-21T07:02:37.191Z,13.38
2023-04-21T07:05:04.672Z,13.51
2023-04-21T07:07:31.795Z,13.61
2023-04-21T07:09:58.965Z,13.74
2023-04-21T07:12:26.086Z,13.95
2023-04-21T07:14:53.177Z,14.17
2023-04-21T07:17:20.251Z,14.43
2023-04-21T07:19:47.465Z,14.56
2023-04-21T07:22:14.553Z,14.66
2023-04-21T07:24:41.700Z,14.68
2023-04-21T07:27:09.041Z,14.69
2023-04-21T07:29:37.470Z,14.76
2023-04-21T07:32:04.596Z,14.87
2023-04-21T07:34:31.783Z,14.98
2023-04-21T07:36:58.975Z,15.07
2023-04-21T07:39:26.393Z,15.20
2023-04-21T07:41:54.179Z,15.43
2023-04-21T07:44:21.378Z,15.57
2023-04-21T07:46:48.418Z,15.74
2023-04-21T07:49:15.818Z,15.87
2023-04-21T07:51:42.856Z,16.01
2023-04-21T07:54:10.300Z,16.05
2023-04-21T07:56:37.387Z,16.03
2023-04-21T07:59:04.468Z,16.17
2023-04-21T08:01:31.613Z,16.44
2023-04-21T08:03:58.930Z,16.56
2023-04-21T08:06:26.312Z,16.67
2023-04-21T08:08:55.133Z,16.75
2023-04-21T08:11:22.648Z,16.75
2023-04-21T08:13:50.329Z,16.76
2023-04-21T08:16:17.524Z,16.81
2023-04-21T08:18:44.651Z,16.87
2023-04-21T08:21:11.750Z,17.07
2023-04-21T08:23:38.829Z,17.21
2023-04-21T08:26:06.113Z,17.33
2023-04-21T08:28:33.290Z,17.39
2023-04-21T08:31:00.821Z,17.35
2023-04-21T08:33:28.163Z,17.39
2023-04-21T08:36:03.969Z,17.39
2023-04-21T08:38:35.760Z,17.46
2023-04-21T08:41:04.566Z,17.50
2023-04-21T08:43:31.741Z,17.48
2023-04-21T08:46:00.056Z,17.51
2023-04-21T08:48:29.863Z,17.54
2023-04-21T08:50:57.307Z,17.57
2023-04-21T08:53:24.360Z,17.54
2023-04-21T08:56:07.487Z,17.66
2023-04-21T08:58:38.370Z,17.68
2023-04-21T09:01:06.015Z,17.75
2023-04-21T09:03:33.410Z,17.91
2023-04-21T09:06:02.909Z,18.10
2023-04-21T09:08:30.999Z,18.22
2023-04-21T09:10:59.957Z,18.26
2023-04-21T09:13:32.612Z,18.31
2023-04-21T09:16:04.646Z,18.26
2023-04-21T09:18:36.581Z,18.31
2023-04-21T09:21:11.525Z,18.31
2023-04-21T09:23:48.548Z,18.27
2023-04-21T09:26:17.907Z,18.22
2023-04-21T09:28:47.369Z,18.17
2023-04-21T09:31:16.969Z,18.21
2023-04-21T09:36:24.613Z,18.21
2023-04-21T09:39:12.481Z,18.29
2023-04-21T09:41:41.500Z,18.50
2023-04-21T09:44:08.604Z,18.58
2023-04-21T09:46:37.381Z,18.60
2023-04-21T09:49:06.023Z,18.67
2023-04-21T09:54:15.728Z,18.82
2023-04-21T09:56:53.319Z,18.78
2023-04-21T09:59:25.174Z,18.80
2023-04-21T10:01:54.121Z,18.84
2023-04-21T10:04:24.195Z,18.95
2023-04-21T10:06:51.589Z,19.07
2023-04-21T10:09:21.912Z,19.16
2023-04-21T10:11:49.040Z,19.23
2023-04-21T10:14:16.216Z,19.27
2023-04-21T10:16:43.700Z,19.33
2023-04-21T10:19:28.298Z,19.37
2023-04-21T10:21:59.064Z,19.35
2023-04-21T10:24:30.231Z,19.32
2023-04-21T10:27:02.315Z,19.39
2023-04-21T10:29:47.991Z,19.43
2023-04-21T10:33:05.762Z,19.39
2023-04-21T10:36:01.764Z,19.39
2023-04-21T10:38:44.622Z,19.42
2023-04-21T10:41:37.568Z,19.48
2023-04-21T10:44:10.511Z,19.53
2023-04-21T10:46:40.279Z,19.61
2023-04-21T10:49:12.061Z,19.59
2023-04-21T10:52:00.628Z,19.61
2023-04-21T10:54:31.493Z,19.64
2023-04-21T10:56:59.469Z,19.63
2023-04-21T10:59:29.323Z,19.56
2023-04-21T11:01:57.416Z,19.57
2023-04-21T11:04:25.189Z,19.48
2023-04-21T11:07:12.207Z,19.52
2023-04-21T11:09:41.051Z,19.47
2023-04-21T11:12:13.322Z,19.52
2023-04-21T11:14:42.028Z,19.58
2023-04-21T11:17:14.205Z,19.62
2023-04-21T11:19:41.936Z,19.63
2023-04-21T11:22:09.001Z,19.63
2023-04-21T11:24:36.651Z,19.61
2023-04-21T11:27:04.215Z,19.65
2023-04-21T11:29:31.652Z,19.65
2023-04-21T11:31:59.445Z,19.65
2023-04-21T11:34:27.271Z,19.64
2023-04-21T11:36:54.417Z,19.73
2023-04-21T11:39:22.178Z,19.77
2023-04-21T11:41:51.473Z,19.67
2023-04-21T11:44:54.975Z,19.63
2023-04-21T11:47:25.367Z,19.68
2023-04-21T11:49:59.760Z,19.70
2023-04-21T11:52:29.269Z,19.68
2023-04-21T11:55:00.247Z,19.67
2023-04-21T11:57:28.706Z,19.69
2023-04-21T12:00:02.467Z,19.71
2023-04-21T12:02:32.822Z,19.68
2023-04-21T12:05:06.094Z,19.62
2023-04-21T12:07:43.087Z,19.59
2023-04-21T12:10:12.644Z,19.60
2023-04-21T12:12:41.332Z,19.59
2023-04-21T12:15:10.901Z,19.66
2023-04-21T12:17:49.058Z,19.70
2023-04-21T12:20:18.155Z,19.66
2023-04-21T12:22:46.117Z,19.51
2023-04-21T12:25:14.058Z,19.48
2023-04-21T12:27:57.626Z,19.48
2023-04-21T12:30:24.869Z,19.45
2023-04-21T12:32:52.538Z,19.46
2023-04-21T12:35:19.688Z,19.45
2023-04-21T12:37:46.910Z,19.46
2023-04-21T12:40:14.008Z,19.47
2023-04-21T12:42:41.085Z,19.48
2023-04-21T12:45:08.691Z,19.43
2023-04-21T12:47:37.648Z,19.36
2023-04-21T12:50:05.453Z,19.26
2023-04-21T12:52:32.584Z,19.28
2023-04-21T12:54:59.799Z,19.28
2023-04-21T12:57:27.042Z,19.33
2023-04-21T12:59:54.224Z,19.36
2023-04-21T13:02:21.467Z,19.42
2023-04-21T13:04:48.704Z,19.42
2023-04-21T13:07:16.402Z,19.43
2023-04-21T13:09:43.824Z,19.48
2023-04-21T13:12:10.859Z,19.48
2023-04-21T13:14:38.028Z,19.46
2023-04-21T13:17:05.426Z,19.41
2023-04-21T13:19:32.868Z,19.39
2023-04-21T13:22:00.213Z,19.39
2023-04-21T13:24:27.426Z,19.31
2023-04-21T13:26:54.806Z,19.24
2023-04-21T13:29:21.911Z,19.17
2023-04-21T13:31:48.981Z,19.19
2023-04-21T13:34:16.155Z,19.11
2023-04-21T13:36:43.429Z,19.01
2023-04-21T13:39:11.353Z,18.93
2023-04-21T13:41:38.475Z,18.85
2023-04-21T13:44:05.957Z,18.79
2023-04-21T13:46:33.251Z,18.75
2023-04-21T13:49:00.407Z,18.69
2023-04-21T13:51:27.457Z,18.67
2023-04-21T13:53:54.813Z,18.64
2023-04-21T13:56:22.156Z,18.61
2023-04-21T13:58:49.358Z,18.64
2023-04-21T14:01:17.546Z,18.60
2023-04-21T14:03:46.069Z,18.57
2023-04-21T14:06:13.425Z,18.51
2023-04-21T14:08:40.831Z,18.52
2023-04-21T14:11:08.019Z,18.48
2023-04-21T14:13:39.789Z,18.41
2023-04-21T14:16:12.018Z,18.39
2023-04-21T14:18:44.562Z,18.37
2023-04-21T14:21:12.205Z,18.32
2023-04-21T14:23:39.552Z,18.28
2023-04-21T14:26:06.724Z,18.26
2023-04-21T14:28:33.802Z,18.27
2023-04-21T14:31:00.922Z,18.22
2023-04-21T14:33:29.015Z,18.20
2023-04-21T14:35:56.826Z,18.20
2023-04-21T14:38:24.644Z,18.17
2023-04-21T14:40:54.689Z,18.15
2023-04-21T14:43:22.500Z,18.15
2023-04-21T14:45:49.674Z,18.06
2023-04-21T14:48:16.984Z,18.03
2023-04-21T14:50:44.144Z,18.02
2023-04-21T14:53:11.414Z,17.98
2023-04-21T14:55:38.502Z,18.01
2023-04-21T14:58:05.693Z,18.02
2023-04-21T15:00:34.881Z,17.97
2023-04-21T15:03:02.779Z,17.92
2023-04-21T15:05:30.360Z,17.87
2023-04-21T15:07:57.533Z,17.84
2023-04-21T15:10:24.742Z,17.84
2023-04-21T15:12:51.876Z,17.81
2023-04-21T15:15:19.013Z,17.81
2023-04-21T15:17:46.146Z,17.82
2023-04-21T15:20:13.328Z,17.76
2023-04-21T15:22:41.328Z,17.75
2023-04-21T15:25:08.817Z,17.71
2023-04-21T15:27:36.999Z,17.71
2023-04-21T15:30:04.756Z,17.73
2023-04-21T15:32:31.885Z,17.70
2023-04-21T15:34:59.113Z,17.71
2023-04-21T15:37:26.256Z,17.72
2023-04-21T15:39:53.529Z,17.72
2023-04-21T15:42:20.810Z,17.69
2023-04-21T15:44:48.154Z,17.68
2023-04-21T15:47:18.121Z,17.61
2023-04-21T15:49:45.557Z,17.63
2023-04-21T15:52:12.853Z,17.54
2023-04-21T15:54:41.059Z,17.54
2023-04-21T15:57:08.280Z,17.48
2023-04-21T15:59:35.450Z,17.47
2023-04-21T16:02:03.246Z,17.45
2023-04-21T16:04:30.945Z,17.43
2023-04-21T16:06:58.076Z,17.39
2023-04-21T16:09:25.285Z,17.38
2023-04-21T16:11:52.467Z,17.32
2023-04-21T16:14:19.671Z,17.32
2023-04-21T16:16:46.948Z,17.31
2023-04-21T16:19:14.226Z,17.30
2023-04-21T16:21:42.687Z,17.28
2023-04-21T16:24:10.112Z,17.27
2023-04-21T16:26:37.324Z,17.24
2023-04-21T16:29:04.528Z,17.22
2023-04-21T16:31:31.850Z,17.20
2023-04-21T16:34:00.281Z,17.19
2023-04-21T16:36:32.569Z,17.15
2023-04-21T16:38:59.946Z,17.07
2023-04-21T16:41:27.088Z,17.06
2023-04-21T16:43:54.170Z,17.05
2023-04-21T16:46:21.412Z,17.05
2023-04-21T16:48:48.615Z,17.02
2023-04-21T16:51:15.813Z,16.99
2023-04-21T16:53:42.877Z,16.96
2023-04-21T16:56:10.328Z,16.92
2023-04-21T16:58:37.917Z,16.88
2023-04-21T17:01:07.726Z,16.83
2023-04-21T17:03:35.261Z,16.78
2023-04-21T17:06:05.067Z,16.74
2023-04-21T17:08:32.241Z,16.68
2023-04-21T17:11:00.188Z,16.56
2023-04-21T17:13:27.391Z,16.54
2023-04-21T17:15:54.686Z,16.47
2023-04-21T17:18:21.752Z,16.36
2023-04-21T17:20:48.798Z,16.34
2023-04-21T17:23:15.918Z,16.28
2023-04-21T17:25:43.203Z,16.22
2023-04-21T17:28:10.309Z,16.16
2023-04-21T17:30:37.376Z,16.11
2023-04-21T17:33:16.370Z,16.08
2023-04-21T17:35:59.845Z,15.97
2023-04-21T17:38:29.727Z,15.91
2023-04-21T17:40:56.856Z,15.87
2023-04-21T17:43:24.423Z,15.80
2023-04-21T17:45:52.507Z,15.71
2023-04-21T17:48:21.212Z,15.70
2023-04-21T17:50:48.242Z,15.64
2023-04-21T17:53:15.706Z,15.58
2023-04-21T17:55:42.859Z,15.54
2023-04-21T17:58:12.309Z,15.46
2023-04-21T18:00:39.902Z,15.42
2023-04-21T18:03:07.142Z,15.37
2023-04-21T18:05:34.509Z,15.32
2023-04-21T18:08:02.368Z,15.26
2023-04-21T18:10:30.077Z,15.20
2023-04-21T18:12:57.721Z,15.15
2023-04-21T18:15:25.031Z,15.10
2023-04-21T18:17:53.382Z,14.99
2023-04-21T18:20:20.763Z,14.94
2023-04-21T18:22:49.088Z,14.91
2023-04-21T18:25:22.083Z,14.85
2023-04-21T18:27:54.533Z,14.79
2023-04-21T18:30:21.670Z,14.73
2023-04-21T18:32:48.819Z,14.68
2023-04-21T18:35:15.922Z,14.61
2023-04-21T18:37:43.439Z,14.52
2023-04-21T18:40:10.919Z,14.51
2023-04-21T18:42:39.396Z,14.45
2023-04-21T18:45:07.349Z,14.37
2023-04-21T18:47:35.071Z,14.35
2023-04-21T18:50:02.166Z,14.31
2023-04-21T18:52:29.211Z,14.24
2023-04-21T18:54:56.468Z,14.18
2023-04-21T18:57:23.585Z,14.13
2023-04-21T18:59:50.598Z,14.08
2023-04-21T19:02:18.100Z,14.00
2023-04-21T19:04:45.790Z,13.99
2023-04-21T19:07:15.769Z,13.92
2023-04-21T19:09:44.428Z,13.87
2023-04-21T19:12:11.710Z,13.81
2023-04-21T19:14:46.503Z,13.77
2023-04-21T19:17:14.688Z,13.71
2023-04-21T19:19:42.525Z,13.64
2023-04-21T19:22:09.681Z,13.56
2023-04-21T19:24:36.913Z,13.50
2023-04-21T19:27:06.252Z,13.42
2023-04-21T19:29:33.411Z,13.35
2023-04-21T19:32:00.610Z,13.35
2023-04-21T19:34:27.822Z,13.28
2023-04-21T19:36:54.918Z,13.25
2023-04-21T19:39:22.055Z,13.16
2023-04-21T19:41:49.181Z,13.15
2023-04-21T19:44:16.392Z,13.09
2023-04-21T19:46:43.804Z,13.05
2023-04-21T19:49:14.210Z,12.98
2023-04-21T19:51:41.593Z,12.94
2023-04-21T19:54:11.926Z,12.83
2023-04-21T19:56:40.780Z,12.76
2023-04-21T19:59:08.279Z,12.76
2023-04-21T20:01:35.639Z,12.69
2023-04-21T20:04:03.941Z,12.67
2023-04-21T20:06:32.181Z,12.60
2023-04-21T20:08:59.458Z,12.53
2023-04-21T20:11:28.927Z,12.51
2023-04-21T20:13:56.274Z,12.48
2023-04-21T20:16:24.052Z,12.40
2023-04-21T20:18:51.235Z,12.31
2023-04-21T20:21:18.330Z,12.33
2023-04-21T20:23:45.398Z,12.28
2023-04-21T20:26:12.706Z,12.24
2023-04-21T20:28:39.827Z,12.22
2023-04-21T20:31:07.286Z,12.19
2023-04-21T20:33:34.577Z,12.14
2023-04-21T20:36:07.404Z,12.11
2023-04-21T20:38:35.571Z,12.06
2023-04-21T20:41:03.473Z,12.04
2023-04-21T20:43:33.388Z,12.00
2023-04-21T20:46:04.478Z,11.93
2023-04-21T20:48:31.577Z,11.89
2023-04-21T20:50:58.628Z,11.87
2023-04-21T20:53:26.336Z,11.84
2023-04-21T20:55:53.504Z,11.79
2023-04-21T20:58:20.631Z,11.75
2023-04-21T21:00:47.817Z,11.72
2023-04-21T21:03:15.146Z,11.67
2023-04-21T21:05:42.533Z,11.65
2023-04-21T21:08:10.143Z,11.60
2023-04-21T21:10:37.290Z,11.56
2023-04-21T21:13:04.354Z,11.53
2023-04-21T21:15:31.500Z,11.57
2023-04-21T21:17:58.894Z,11.53
2023-04-21T21:20:26.410Z,11.49
2023-04-21T21:22:53.542Z,11.47
2023-04-21T21:25:20.798Z,11.44
2023-04-21T21:27:48.025Z,11.41
2023-04-21T21:30:15.315Z,11.36
2023-04-21T21:32:42.404Z,11.31
2023-04-21T21:35:10.476Z,11.30
2023-04-21T21:37:38.236Z,11.28
2023-04-21T21:40:06.435Z,11.25
2023-04-21T21:42:33.495Z,11.21
2023-04-21T21:45:01.124Z,11.20
2023-04-21T21:47:28.492Z,11.15
2023-04-21T21:49:57.938Z,11.15
2023-04-21T21:52:25.310Z,11.10
2023-04-21T21:54:52.865Z,11.11
2023-04-21T21:57:20.011Z,11.09
2023-04-21T21:59:48.556Z,11.08
2023-04-21T22:02:16.086Z,11.07
2023-04-21T22:04:44.008Z,11.02
2023-04-21T22:07:11.252Z,11.02
2023-04-21T22:09:40.201Z,11.02
2023-04-21T22:12:07.665Z,11.01
2023-04-21T22:14:35.370Z,10.95
2023-04-21T22:17:03.046Z,10.91
2023-04-21T22:19:31.292Z,10.89
2023-04-21T22:21:58.482Z,10.86
2023-04-21T22:24:25.851Z,10.87
2023-04-21T22:26:52.957Z,10.84
2023-04-21T22:29:20.044Z,10.81
2023-04-21T22:31:47.805Z,10.92
2023-04-21T22:34:19.850Z,10.91
2023-04-21T22:36:46.937Z,10.91
2023-04-21T22:39:14.008Z,10.88
2023-04-21T22:41:41.318Z,10.87
2023-04-21T22:44:08.823Z,10.81
2023-04-21T22:46:36.623Z,10.75
2023-04-21T22:49:04.086Z,10.74
2023-04-21T22:51:32.757Z,10.70
2023-04-21T22:54:00.650Z,10.74
2023-04-21T22:56:28.704Z,10.71
2023-04-21T22:58:55.924Z,10.62
2023-04-21T23:01:23.312Z,10.51
2023-04-21T23:03:51.020Z,10.57
2023-04-21T23:06:18.260Z,10.49
2023-04-21T23:08:45.399Z,10.39
2023-04-21T23:11:12.912Z,10.41
2023-04-21T23:13:40.189Z,10.39
2023-04-21T23:16:07.316Z,10.42
2023-04-21T23:18:34.383Z,10.40
2023-04-21T23:21:01.688Z,10.36
2023-04-21T23:23:28.786Z,10.31
2023-04-21T23:25:56.078Z,10.31
2023-04-21T23:28:24.432Z,10.28
2023-04-21T23:30:51.567Z,10.21
2023-04-21T23:33:18.803Z,10.20
2023-04-21T23:35:45.930Z,10.18
2023-04-21T23:38:12.998Z,10.10
2023-04-21T23:40:40.131Z,10.12
2023-04-21T23:43:07.808Z,10.08
2023-04-21T23:45:35.106Z,10.06
2023-04-21T23:48:02.327Z,10.03
2023-04-21T23:50:29.520Z,10.02
2023-04-21T23:52:56.673Z,10.02
2023-04-21T23:55:23.782Z,9.99
2023-04-21T23:57:50.805Z,9.98
